Terminal Aerodrome Forecast
Issued by NWS

Home | Current Version | Previous Version | Text Only | Print | Product List | Glossary On
Versions: 1 2 3 4 5 6 7 8 9 10 11 12 13 14 15 16 17 18 19 20 21 22
997
FTUS42 KTAE 241720
TAFECP
TAF
KECP 241720Z 2418/2518 20010G15KT P6SM BKN025
     FM241900 20010G15KT P6SM VCTS SCT025 BKN040CB
     FM242300 22007KT P6SM BKN040=

USA.gov is the U.S. government's official web portal to all federal, state and local government web resources and services.